createdAt,value
2022-08-20T00:00:04.971Z,22.07
2022-08-20T00:01:04.923Z,22.06
2022-08-20T00:02:04.936Z,22.01
2022-08-20T00:03:04.823Z,22.10
2022-08-20T00:04:04.777Z,22.01
2022-08-20T00:05:04.727Z,22.01
2022-08-20T00:06:04.680Z,22.01
2022-08-20T00:07:04.629Z,22.02
2022-08-20T00:08:04.583Z,21.98
2022-08-20T00:09:04.532Z,21.94
2022-08-20T00:10:04.489Z,21.99
2022-08-20T00:11:04.434Z,22.06
2022-08-20T00:12:04.388Z,21.97
2022-08-20T00:13:04.337Z,21.99
2022-08-20T00:14:04.292Z,21.94
2022-08-20T00:15:04.243Z,21.95
2022-08-20T00:16:04.205Z,21.91
2022-08-20T00:17:04.149Z,21.97
2022-08-20T00:18:04.095Z,21.91
2022-08-20T00:19:04.045Z,21.92
2022-08-20T00:20:04.000Z,21.92
2022-08-20T00:21:03.950Z,21.90
2022-08-20T00:22:03.905Z,21.91
2022-08-20T00:23:08.468Z,21.91
2022-08-20T00:24:03.804Z,21.88
2022-08-20T00:25:03.757Z,21.79
2022-08-20T00:26:03.705Z,21.85
2022-08-20T00:27:03.656Z,21.74
2022-08-20T00:28:03.607Z,21.90
2022-08-20T00:29:03.561Z,21.83
2022-08-20T00:30:03.510Z,21.88
2022-08-20T00:31:03.489Z,21.78
2022-08-20T00:32:03.414Z,21.79
2022-08-20T00:33:03.364Z,21.82
2022-08-20T00:34:03.318Z,21.78
2022-08-20T00:35:03.272Z,21.81
2022-08-20T00:36:03.220Z,21.79
2022-08-20T00:37:03.169Z,21.79
2022-08-20T00:38:03.255Z,21.76
2022-08-20T00:39:03.072Z,21.81
2022-08-20T00:40:03.089Z,21.82
2022-08-20T00:41:02.979Z,21.81
2022-08-20T00:42:02.925Z,21.71
2022-08-20T00:43:02.876Z,21.75
2022-08-20T00:44:02.829Z,21.75
2022-08-20T00:45:02.779Z,21.75
2022-08-20T00:46:02.733Z,21.71
2022-08-20T00:47:02.681Z,21.72
2022-08-20T00:48:02.634Z,21.74
2022-08-20T00:49:02.584Z,21.61
2022-08-20T00:50:02.537Z,21.67
2022-08-20T00:51:02.487Z,21.72
2022-08-20T00:52:02.487Z,21.64
2022-08-20T00:53:02.389Z,21.69
2022-08-20T00:54:02.342Z,21.69
2022-08-20T00:55:02.290Z,21.71
2022-08-20T00:56:02.247Z,21.67
2022-08-20T00:57:02.194Z,21.63
2022-08-20T00:58:02.277Z,21.61
2022-08-20T00:59:02.094Z,21.61
2022-08-20T01:00:02.048Z,21.54
2022-08-20T01:01:01.998Z,21.60
2022-08-20T01:02:02.039Z,21.57
2022-08-20T01:03:01.902Z,21.54
2022-08-20T01:04:01.857Z,21.57
2022-08-20T01:05:01.804Z,21.59
2022-08-20T01:06:01.754Z,21.54
2022-08-20T01:07:01.705Z,21.56
2022-08-20T01:08:01.656Z,21.50
2022-08-20T01:09:01.606Z,21.53
2022-08-20T01:10:01.560Z,21.45
2022-08-20T01:11:01.509Z,21.46
2022-08-20T01:12:01.466Z,21.51
2022-08-20T01:13:01.412Z,21.44
2022-08-20T01:14:01.441Z,21.38
2022-08-20T01:15:01.314Z,21.46
2022-08-20T01:16:01.266Z,21.44
2022-08-20T01:17:01.217Z,21.41
2022-08-20T01:18:01.171Z,21.46
2022-08-20T01:19:01.122Z,21.45
2022-08-20T01:20:01.070Z,21.41
2022-08-20T01:21:01.021Z,21.42
2022-08-20T01:22:00.975Z,21.42
2022-08-20T01:23:00.923Z,21.42
2022-08-20T01:24:00.875Z,21.42
2022-08-20T01:25:00.825Z,21.39
2022-08-20T01:26:00.776Z,21.46
2022-08-20T01:27:00.728Z,21.41
2022-08-20T01:28:01.007Z,21.41
2022-08-20T01:29:00.628Z,21.26
2022-08-20T01:30:00.598Z,21.36
2022-08-20T01:31:00.529Z,21.30
2022-08-20T01:32:00.480Z,21.38
2022-08-20T01:33:00.433Z,21.32
2022-08-20T01:34:00.382Z,21.35
2022-08-20T01:35:00.432Z,21.38
2022-08-20T01:36:00.284Z,21.27
2022-08-20T01:37:00.238Z,21.29
2022-08-20T01:38:00.186Z,21.34
2022-08-20T01:39:00.139Z,21.29
2022-08-20T01:40:00.230Z,21.32
2022-08-20T01:41:00.041Z,21.27
2022-08-20T01:42:00.787Z,21.32
2022-08-20T01:43:01.792Z,21.29
2022-08-20T01:43:59.928Z,21.35
2022-08-20T01:45:01.728Z,21.35
2022-08-20T01:45:59.793Z,21.30
2022-08-20T01:46:59.758Z,21.32
2022-08-20T01:47:59.697Z,21.38
2022-08-20T01:48:59.649Z,21.30
2022-08-20T01:49:59.601Z,21.19
2022-08-20T01:50:59.550Z,21.24
2022-08-20T01:51:59.499Z,21.26
2022-08-20T01:52:59.455Z,21.30
2022-08-20T01:53:59.438Z,21.21
2022-08-20T01:54:59.354Z,21.19
2022-08-20T01:55:59.354Z,21.30
2022-08-20T01:56:59.259Z,21.29
2022-08-20T01:57:59.205Z,21.24
2022-08-20T01:58:59.315Z,21.21
2022-08-20T01:59:59.107Z,21.20
2022-08-20T02:00:59.061Z,21.20
2022-08-20T02:01:59.066Z,21.20
2022-08-20T02:02:58.961Z,21.17
2022-08-20T02:03:58.911Z,21.17
2022-08-20T02:04:58.862Z,21.17
2022-08-20T02:05:58.812Z,21.16
2022-08-20T02:06:58.763Z,21.16
2022-08-20T02:07:58.713Z,21.06
2022-08-20T02:08:58.668Z,21.16
2022-08-20T02:09:58.615Z,21.11
2022-08-20T02:10:58.568Z,21.11
2022-08-20T02:11:58.517Z,21.09
2022-08-20T02:12:58.471Z,21.05
2022-08-20T02:13:58.428Z,21.02
2022-08-20T02:14:58.371Z,21.06
2022-08-20T02:15:58.320Z,21.08
2022-08-20T02:16:58.275Z,21.06
2022-08-20T02:17:58.225Z,21.06
2022-08-20T02:18:58.465Z,21.06
2022-08-20T02:19:58.124Z,21.09
2022-08-20T02:20:58.076Z,21.09
2022-08-20T02:21:58.026Z,21.09
2022-08-20T02:22:57.976Z,21.01
2022-08-20T02:23:58.795Z,21.14
2022-08-20T02:24:57.880Z,21.04
2022-08-20T02:25:57.829Z,21.01
2022-08-20T02:26:57.783Z,21.05
2022-08-20T02:27:57.786Z,20.98
2022-08-20T02:28:57.684Z,21.05
2022-08-20T02:29:57.633Z,20.98
2022-08-20T02:30:57.584Z,21.02
2022-08-20T02:32:32.803Z,20.96
2022-08-20T02:32:57.485Z,20.99
2022-08-20T02:34:18.526Z,21.02
2022-08-20T02:34:57.389Z,20.99
2022-08-20T02:35:57.343Z,20.99
2022-08-20T02:36:57.287Z,20.96
2022-08-20T02:37:57.561Z,20.99
2022-08-20T02:38:57.191Z,20.99
2022-08-20T02:39:57.184Z,20.98
2022-08-20T02:40:57.095Z,20.98
2022-08-20T02:41:57.043Z,20.99
2022-08-20T02:42:56.992Z,20.98
2022-08-20T02:43:56.942Z,20.95
2022-08-20T02:44:56.895Z,20.96
2022-08-20T02:45:56.842Z,20.96
2022-08-20T02:46:56.794Z,20.87
2022-08-20T02:47:57.087Z,20.91
2022-08-20T02:48:56.696Z,20.90
2022-08-20T02:49:56.645Z,20.89
2022-08-20T02:50:56.599Z,20.90
2022-08-20T02:51:56.549Z,21.01
2022-08-20T02:52:56.500Z,20.93
2022-08-20T02:53:56.450Z,20.84
2022-08-20T02:54:56.402Z,20.95
2022-08-20T02:55:56.350Z,20.96
2022-08-20T02:56:56.307Z,20.87
2022-08-20T02:57:58.497Z,20.83
2022-08-20T02:58:56.202Z,20.86
2022-08-20T02:59:56.153Z,20.83
2022-08-20T03:00:56.170Z,20.90
2022-08-20T03:02:00.233Z,20.86
2022-08-20T03:02:56.005Z,20.87
2022-08-20T03:03:55.956Z,20.87
2022-08-20T03:04:55.908Z,20.87
2022-08-20T03:05:55.860Z,20.87
2022-08-20T03:06:55.809Z,20.86
2022-08-20T03:07:55.885Z,20.89
2022-08-20T03:08:55.710Z,20.86
2022-08-20T03:09:55.660Z,20.83
2022-08-20T03:10:55.610Z,20.79
2022-08-20T03:11:55.560Z,20.79
2022-08-20T03:12:55.511Z,20.89
2022-08-20T03:13:55.461Z,20.86
2022-08-20T03:14:55.412Z,20.81
2022-08-20T03:15:58.860Z,20.81
2022-08-20T03:16:55.314Z,20.86
2022-08-20T03:17:55.391Z,20.81
2022-08-20T03:18:55.215Z,20.87
2022-08-20T03:19:55.165Z,20.89
2022-08-20T03:20:55.120Z,20.84
2022-08-20T03:21:55.064Z,20.86
2022-08-20T03:22:55.021Z,20.80
2022-08-20T03:23:54.966Z,20.72
2022-08-20T03:24:54.921Z,20.79
2022-08-20T03:25:54.866Z,20.87
2022-08-20T03:26:54.820Z,20.86
2022-08-20T03:27:55.087Z,20.86
2022-08-20T03:28:54.721Z,20.80
2022-08-20T03:29:54.670Z,20.79
2022-08-20T03:30:54.623Z,20.81
2022-08-20T03:32:09.312Z,20.74
2022-08-20T03:32:54.524Z,20.71
2022-08-20T03:33:54.476Z,20.71
2022-08-20T03:34:54.424Z,20.69
2022-08-20T03:35:54.373Z,20.68
2022-08-20T03:36:54.325Z,20.80
2022-08-20T03:37:54.278Z,20.68
2022-08-20T03:38:54.228Z,20.72
2022-08-20T03:39:54.220Z,20.74
2022-08-20T03:40:54.128Z,20.76
2022-08-20T03:41:54.075Z,20.72
2022-08-20T03:42:54.031Z,20.79
2022-08-20T03:43:53.989Z,20.79
2022-08-20T03:44:58.949Z,20.81
2022-08-20T03:45:53.878Z,20.79
2022-08-20T03:46:53.830Z,20.68
2022-08-20T03:47:53.780Z,20.72
2022-08-20T03:48:59.774Z,20.74
2022-08-20T03:49:53.680Z,20.74
2022-08-20T03:50:53.633Z,20.72
2022-08-20T03:51:57.376Z,20.62
2022-08-20T03:52:53.533Z,20.62
2022-08-20T03:53:53.486Z,20.71
2022-08-20T03:54:53.433Z,20.71
2022-08-20T03:55:53.908Z,20.69
2022-08-20T03:56:53.335Z,20.59
2022-08-20T03:57:53.285Z,20.65
2022-08-20T03:58:53.234Z,20.61
2022-08-20T03:59:58.164Z,20.62
2022-08-20T04:00:53.164Z,20.66
2022-08-20T04:01:53.116Z,20.71
2022-08-20T04:02:53.038Z,20.65
2022-08-20T04:03:55.220Z,20.65
2022-08-20T04:04:52.942Z,20.68
2022-08-20T04:05:52.891Z,20.66
2022-08-20T04:06:52.841Z,20.65
2022-08-20T04:07:52.827Z,20.66
2022-08-20T04:08:52.739Z,20.65
2022-08-20T04:09:52.688Z,20.64
2022-08-20T04:10:52.640Z,20.66
2022-08-20T04:11:52.592Z,20.65
2022-08-20T04:12:52.871Z,20.64
2022-08-20T04:13:52.495Z,20.64
2022-08-20T04:14:52.442Z,20.65
2022-08-20T04:15:52.395Z,20.65
2022-08-20T04:16:52.344Z,20.62
2022-08-20T04:17:52.334Z,20.64
2022-08-20T04:19:01.372Z,20.61
2022-08-20T04:19:52.192Z,20.59
2022-08-20T04:20:52.145Z,20.62
2022-08-20T04:21:52.094Z,20.65
2022-08-20T04:22:58.996Z,20.65
2022-08-20T04:23:51.996Z,20.65
2022-08-20T04:24:51.946Z,20.59
2022-08-20T04:25:51.895Z,20.58
2022-08-20T04:26:51.846Z,20.65
2022-08-20T04:27:51.866Z,20.59
2022-08-20T04:28:51.748Z,20.66
2022-08-20T04:29:51.695Z,20.58
2022-08-20T04:30:52.088Z,20.61
2022-08-20T04:31:51.597Z,20.53
2022-08-20T04:32:51.550Z,20.62
2022-08-20T04:33:51.498Z,20.59
2022-08-20T04:34:51.450Z,20.59
2022-08-20T04:35:53.346Z,20.61
2022-08-20T04:36:51.350Z,20.64
2022-08-20T04:37:51.321Z,20.56
2022-08-20T04:38:51.268Z,20.62
2022-08-20T04:39:51.227Z,20.59
2022-08-20T04:40:51.154Z,20.53
2022-08-20T04:41:51.099Z,20.58
2022-08-20T04:42:51.842Z,20.56
2022-08-20T04:43:51.001Z,20.58
2022-08-20T04:44:50.953Z,20.51
2022-08-20T04:45:50.901Z,20.58
2022-08-20T04:46:50.853Z,20.53
2022-08-20T04:47:50.806Z,20.50
2022-08-20T04:48:50.894Z,20.53
2022-08-20T04:49:50.703Z,20.49
2022-08-20T04:50:50.655Z,20.47
2022-08-20T04:51:50.602Z,20.47
2022-08-20T04:52:50.554Z,20.51
2022-08-20T04:53:52.489Z,20.43
2022-08-20T04:54:50.458Z,20.56
2022-08-20T04:55:50.404Z,20.51
2022-08-20T04:56:50.358Z,20.46
2022-08-20T04:57:50.304Z,20.51
2022-08-20T04:58:50.258Z,20.46
2022-08-20T04:59:50.205Z,20.49
2022-08-20T05:00:50.226Z,20.51
2022-08-20T05:01:50.107Z,20.59
2022-08-20T05:02:50.058Z,20.42
2022-08-20T05:03:50.007Z,20.50
2022-08-20T05:04:49.960Z,20.49
2022-08-20T05:05:49.905Z,20.53
2022-08-20T05:06:49.858Z,20.50
2022-08-20T05:07:49.860Z,20.50
2022-08-20T05:08:49.759Z,20.50
2022-08-20T05:09:49.707Z,20.50
2022-08-20T05:10:49.660Z,20.51
2022-08-20T05:11:49.609Z,20.42
2022-08-20T05:12:56.686Z,20.53
2022-08-20T05:13:49.508Z,20.47
2022-08-20T05:14:49.461Z,20.49
2022-08-20T05:15:49.412Z,20.46
2022-08-20T05:16:49.362Z,20.46
2022-08-20T05:17:49.339Z,20.53
2022-08-20T05:18:52.230Z,20.49
2022-08-20T05:19:49.210Z,20.51
2022-08-20T05:20:49.162Z,20.49
2022-08-20T05:21:49.113Z,20.49
2022-08-20T05:22:49.063Z,20.47
2022-08-20T05:23:49.055Z,20.50
2022-08-20T05:24:48.963Z,20.54
2022-08-20T05:25:48.911Z,20.49
2022-08-20T05:26:48.866Z,20.59
2022-08-20T05:27:48.812Z,20.49
2022-08-20T05:28:53.866Z,20.53
2022-08-20T05:29:48.713Z,20.50
2022-08-20T05:30:48.664Z,20.50
2022-08-20T05:31:48.617Z,20.51
2022-08-20T05:32:48.566Z,20.51
2022-08-20T05:33:48.514Z,20.58
2022-08-20T05:34:48.466Z,20.56
2022-08-20T05:35:48.415Z,20.59
2022-08-20T05:36:49.319Z,20.62
2022-08-20T05:37:48.313Z,20.50
2022-08-20T05:38:49.721Z,20.56
2022-08-20T05:39:48.236Z,20.58
2022-08-20T05:40:48.168Z,20.61
2022-08-20T05:41:48.116Z,20.64
2022-08-20T05:42:48.068Z,20.62
2022-08-20T05:43:48.015Z,20.66
2022-08-20T05:44:47.969Z,20.64
2022-08-20T05:45:47.919Z,20.65
2022-08-20T05:46:47.869Z,20.68
2022-08-20T05:47:47.819Z,20.66
2022-08-20T05:48:47.796Z,20.64
2022-08-20T05:49:47.731Z,20.56
2022-08-20T05:50:47.666Z,20.65
2022-08-20T05:51:47.621Z,20.62
2022-08-20T05:52:47.568Z,20.59
2022-08-20T05:53:47.519Z,20.64
2022-08-20T05:54:47.471Z,20.65
2022-08-20T05:55:47.421Z,20.64
2022-08-20T05:56:47.369Z,20.68
2022-08-20T05:57:47.320Z,20.69
2022-08-20T05:58:47.269Z,20.64
2022-08-20T05:59:47.226Z,20.61
2022-08-20T06:00:47.231Z,20.72
2022-08-20T06:01:47.120Z,20.71
2022-08-20T06:02:47.071Z,20.72
2022-08-20T06:03:47.021Z,20.71
2022-08-20T06:04:46.972Z,20.74
2022-08-20T06:05:46.922Z,20.71
2022-08-20T06:06:47.678Z,20.72
2022-08-20T06:07:46.827Z,20.77
2022-08-20T06:08:46.772Z,20.77
2022-08-20T06:09:46.724Z,20.79
2022-08-20T06:10:47.366Z,20.80
2022-08-20T06:11:46.623Z,20.77
2022-08-20T06:12:46.575Z,20.69
2022-08-20T06:13:46.526Z,20.69
2022-08-20T06:14:46.474Z,20.74
2022-08-20T06:15:46.424Z,20.74
2022-08-20T06:16:57.271Z,20.71
2022-08-20T06:17:46.328Z,20.74
2022-08-20T06:18:46.285Z,20.72
2022-08-20T06:19:46.931Z,20.68
2022-08-20T06:20:46.185Z,20.77
2022-08-20T06:21:46.126Z,20.71
2022-08-20T06:22:46.074Z,20.69
2022-08-20T06:23:58.651Z,20.83
2022-08-20T06:24:45.975Z,20.79
2022-08-20T06:25:45.927Z,20.83
2022-08-20T06:26:45.877Z,20.86
2022-08-20T06:27:45.828Z,20.80
2022-08-20T06:28:45.777Z,20.86
2022-08-20T06:29:45.729Z,20.83
2022-08-20T06:30:45.678Z,20.86
2022-08-20T06:31:45.633Z,20.84
2022-08-20T06:32:45.583Z,20.84
2022-08-20T06:33:45.529Z,20.81
2022-08-20T06:34:50.569Z,20.79
2022-08-20T06:35:45.431Z,20.86
2022-08-20T06:36:45.386Z,20.79
2022-08-20T06:37:45.330Z,20.81
2022-08-20T06:38:45.279Z,20.90
2022-08-20T06:39:45.271Z,20.81
2022-08-20T06:40:45.181Z,20.81
2022-08-20T06:41:45.134Z,20.91
2022-08-20T06:42:48.485Z,20.91
2022-08-20T06:43:45.032Z,20.84
2022-08-20T06:44:44.982Z,20.84
2022-08-20T06:45:44.936Z,20.93
2022-08-20T06:46:44.882Z,20.93
2022-08-20T06:47:44.834Z,20.86
2022-08-20T06:48:44.783Z,20.87
2022-08-20T06:49:44.738Z,20.87
2022-08-20T06:50:47.601Z,20.89
2022-08-20T06:51:44.635Z,20.95
2022-08-20T06:53:03.070Z,20.89
2022-08-20T06:53:44.535Z,20.83
2022-08-20T06:54:44.484Z,20.87
2022-08-20T06:55:48.554Z,20.84
2022-08-20T06:56:44.386Z,20.84
2022-08-20T06:57:44.336Z,20.90
2022-08-20T06:58:44.295Z,20.84
2022-08-20T06:59:44.238Z,20.86
2022-08-20T07:00:44.203Z,20.84
2022-08-20T07:01:44.212Z,20.98
2022-08-20T07:02:44.087Z,21.04
2022-08-20T07:03:54.670Z,20.91
2022-08-20T07:04:43.989Z,20.98
2022-08-20T07:05:43.940Z,20.90
2022-08-20T07:06:43.891Z,21.05
2022-08-20T07:07:43.841Z,21.02
2022-08-20T07:08:43.791Z,20.84
2022-08-20T07:09:43.741Z,20.89
2022-08-20T07:10:43.691Z,20.95
2022-08-20T07:11:43.643Z,20.98
2022-08-20T07:12:43.593Z,20.99
2022-08-20T07:13:43.546Z,21.01
2022-08-20T07:14:43.493Z,20.93
2022-08-20T07:15:43.445Z,20.93
2022-08-20T07:16:43.394Z,21.01
2022-08-20T07:17:43.346Z,20.99
2022-08-20T07:18:43.296Z,21.08
2022-08-20T07:19:43.251Z,20.93
2022-08-20T07:20:43.198Z,21.06
2022-08-20T07:21:43.146Z,21.02
2022-08-20T07:22:43.094Z,21.04
2022-08-20T07:23:43.054Z,21.09
2022-08-20T07:24:45.987Z,21.08
2022-08-20T07:25:42.950Z,21.06
2022-08-20T07:26:42.899Z,21.06
2022-08-20T07:27:42.849Z,21.04
2022-08-20T07:28:42.800Z,21.11
2022-08-20T07:29:42.749Z,21.08
2022-08-20T07:30:56.500Z,21.09
2022-08-20T07:31:42.652Z,21.06
2022-08-20T07:32:45.166Z,21.09
2022-08-20T07:33:42.551Z,21.05
2022-08-20T07:34:43.708Z,21.02
2022-08-20T07:35:42.454Z,21.05
2022-08-20T07:36:42.402Z,21.08
2022-08-20T07:37:42.353Z,21.08
2022-08-20T07:38:42.303Z,21.09
2022-08-20T07:39:42.313Z,21.06
2022-08-20T07:40:42.203Z,21.08
2022-08-20T07:41:42.160Z,21.13
2022-08-20T07:42:42.109Z,21.08
2022-08-20T07:43:42.062Z,21.11
2022-08-20T07:44:42.007Z,21.09
2022-08-20T07:45:41.958Z,21.16
2022-08-20T07:46:41.906Z,21.11
2022-08-20T07:47:41.861Z,21.17
2022-08-20T07:48:41.837Z,21.16
2022-08-20T07:49:41.760Z,21.17
2022-08-20T07:50:43.075Z,21.14
2022-08-20T07:51:41.661Z,21.16
2022-08-20T07:52:41.609Z,21.16
2022-08-20T07:53:41.561Z,21.11
2022-08-20T07:54:41.516Z,21.13
2022-08-20T07:55:41.465Z,21.14
2022-08-20T07:56:41.411Z,21.14
2022-08-20T07:57:41.373Z,21.21
2022-08-20T07:58:41.514Z,21.20
2022-08-20T07:59:41.265Z,21.24
2022-08-20T08:00:41.330Z,21.21
2022-08-20T08:01:41.166Z,21.21
2022-08-20T08:02:41.114Z,21.23
2022-08-20T08:03:50.170Z,21.24
2022-08-20T08:04:41.016Z,21.27
2022-08-20T08:05:40.966Z,21.20
2022-08-20T08:06:40.917Z,21.14
2022-08-20T08:07:43.035Z,21.19
2022-08-20T08:08:40.819Z,21.23
2022-08-20T08:09:40.769Z,21.24
2022-08-20T08:10:40.718Z,21.21
2022-08-20T08:11:44.935Z,21.26
2022-08-20T08:12:40.620Z,21.27
2022-08-20T08:13:40.571Z,21.27
2022-08-20T08:14:40.520Z,21.30
2022-08-20T08:15:40.473Z,21.29
2022-08-20T08:16:40.423Z,21.26
2022-08-20T08:17:40.377Z,21.32
2022-08-20T08:18:40.322Z,21.30
2022-08-20T08:19:40.289Z,21.32
2022-08-20T08:20:46.931Z,21.30
2022-08-20T08:21:40.179Z,21.32
2022-08-20T08:22:40.126Z,21.38
2022-08-20T08:23:40.077Z,21.30
2022-08-20T08:24:40.028Z,21.38
2022-08-20T08:25:39.979Z,21.34
2022-08-20T08:26:39.945Z,21.34
2022-08-20T08:27:39.881Z,21.35
2022-08-20T08:28:39.830Z,21.30
2022-08-20T08:29:39.781Z,21.41
2022-08-20T08:30:39.733Z,21.38
2022-08-20T08:31:39.685Z,21.42
2022-08-20T08:32:39.635Z,21.41
2022-08-20T08:33:39.585Z,21.42
2022-08-20T08:34:39.533Z,21.41
2022-08-20T08:35:39.486Z,21.39
2022-08-20T08:36:39.448Z,21.44
2022-08-20T08:37:39.386Z,21.41
2022-08-20T08:38:39.342Z,21.32
2022-08-20T08:39:39.318Z,21.36
2022-08-20T08:40:39.236Z,21.45
2022-08-20T08:41:39.189Z,21.45
2022-08-20T08:42:43.142Z,21.45
2022-08-20T08:43:39.094Z,21.39
2022-08-20T08:44:39.040Z,21.45
2022-08-20T08:45:38.992Z,21.42
2022-08-20T08:46:38.964Z,21.41
2022-08-20T08:47:38.893Z,21.41
2022-08-20T08:48:38.846Z,21.42
2022-08-20T08:49:38.793Z,21.39
2022-08-20T08:50:53.830Z,21.44
2022-08-20T08:51:38.703Z,21.50
2022-08-20T08:52:38.644Z,21.51
2022-08-20T08:53:38.598Z,21.50
2022-08-20T08:54:38.549Z,21.51
2022-08-20T08:55:38.497Z,21.59
2022-08-20T08:56:38.448Z,21.48
2022-08-20T08:57:38.400Z,21.57
2022-08-20T08:58:38.348Z,21.56
2022-08-20T08:59:52.242Z,21.57
2022-08-20T09:00:38.259Z,21.56
2022-08-20T09:01:53.913Z,21.51
2022-08-20T09:02:38.196Z,21.51
2022-08-20T09:03:38.104Z,21.60
2022-08-20T09:04:38.056Z,21.57
2022-08-20T09:05:38.005Z,21.54
2022-08-20T09:06:37.955Z,21.64
2022-08-20T09:07:37.907Z,21.66
2022-08-20T09:08:37.860Z,21.71
2022-08-20T09:09:37.808Z,21.67
2022-08-20T09:10:37.758Z,21.71
2022-08-20T09:11:37.711Z,21.67
2022-08-20T09:12:37.661Z,21.71
2022-08-20T09:13:37.612Z,21.66
2022-08-20T09:14:37.559Z,21.63
2022-08-20T09:15:37.513Z,21.66
2022-08-20T09:16:52.456Z,21.63
2022-08-20T09:17:37.416Z,21.64
2022-08-20T09:18:37.362Z,21.69
2022-08-20T09:19:37.319Z,21.66
2022-08-20T09:20:37.277Z,21.75
2022-08-20T09:21:37.217Z,21.71
2022-08-20T09:22:37.166Z,21.75
2022-08-20T09:23:37.118Z,21.75
2022-08-20T09:24:37.068Z,21.75
2022-08-20T09:25:37.020Z,21.75
2022-08-20T09:26:39.136Z,21.72
2022-08-20T09:27:36.924Z,21.69
2022-08-20T09:28:37.187Z,21.78
2022-08-20T09:29:36.823Z,21.81
2022-08-20T09:30:36.785Z,21.72
2022-08-20T09:31:37.796Z,21.79
2022-08-20T09:32:36.692Z,21.76
2022-08-20T09:33:36.626Z,21.78
2022-08-20T09:34:36.576Z,21.81
2022-08-20T09:35:36.529Z,21.74
2022-08-20T09:36:36.482Z,21.79
2022-08-20T09:37:37.706Z,21.78
2022-08-20T09:38:36.379Z,21.83
2022-08-20T09:39:36.362Z,21.78
2022-08-20T09:40:36.282Z,21.78
2022-08-20T09:41:36.233Z,21.79
2022-08-20T09:42:40.397Z,21.78
2022-08-20T09:43:36.137Z,21.78
2022-08-20T09:44:36.084Z,21.79
2022-08-20T09:45:36.040Z,21.78
2022-08-20T09:46:35.994Z,21.78
2022-08-20T09:47:35.938Z,21.82
2022-08-20T09:48:35.891Z,21.81
2022-08-20T09:49:35.840Z,21.83
2022-08-20T09:50:35.792Z,21.83
2022-08-20T09:51:35.743Z,21.79
2022-08-20T09:52:38.930Z,21.88
2022-08-20T09:53:35.645Z,21.88
2022-08-20T09:54:35.594Z,21.85
2022-08-20T09:55:35.545Z,21.79
2022-08-20T09:56:35.504Z,21.81
2022-08-20T09:57:35.448Z,21.82
2022-08-20T09:58:35.401Z,21.79
2022-08-20T09:59:35.351Z,21.91
2022-08-20T10:00:35.308Z,21.82
2022-08-20T10:01:35.286Z,21.79
2022-08-20T10:02:35.200Z,21.88
2022-08-20T10:03:35.153Z,21.83
2022-08-20T10:04:35.105Z,21.85
2022-08-20T10:05:35.053Z,21.90
2022-08-20T10:06:37.805Z,21.95
2022-08-20T10:07:34.955Z,21.85
2022-08-20T10:08:34.909Z,21.91
2022-08-20T10:09:34.856Z,21.85
2022-08-20T10:10:34.809Z,21.90
2022-08-20T10:11:34.759Z,21.91
2022-08-20T10:12:34.714Z,21.95
2022-08-20T10:13:34.663Z,21.97
2022-08-20T10:14:34.613Z,21.97
2022-08-20T10:15:34.562Z,22.01
2022-08-20T10:16:34.518Z,21.92
2022-08-20T10:17:34.464Z,21.98
2022-08-20T10:18:34.417Z,22.01
2022-08-20T10:19:34.368Z,21.94
2022-08-20T10:20:34.320Z,22.14
2022-08-20T10:21:38.486Z,22.13
2022-08-20T10:22:34.223Z,22.13
2022-08-20T10:23:34.179Z,22.09
2022-08-20T10:24:34.128Z,22.10
2022-08-20T10:25:34.074Z,22.07
2022-08-20T10:26:34.025Z,22.13
2022-08-20T10:27:33.975Z,22.19
2022-08-20T10:28:33.928Z,22.16
2022-08-20T10:29:33.876Z,22.17
2022-08-20T10:30:33.832Z,22.23
2022-08-20T10:31:33.780Z,22.14
2022-08-20T10:32:33.732Z,22.20
2022-08-20T10:33:33.682Z,22.17
2022-08-20T10:34:33.634Z,22.20
2022-08-20T10:35:33.585Z,22.23
2022-08-20T10:36:33.536Z,22.22
2022-08-20T10:37:33.485Z,22.16
2022-08-20T10:38:33.440Z,22.16
2022-08-20T10:39:33.434Z,22.16
2022-08-20T10:40:33.343Z,22.19
2022-08-20T10:41:37.176Z,22.28
2022-08-20T10:42:33.242Z,22.22
2022-08-20T10:43:33.193Z,22.22
2022-08-20T10:44:33.145Z,22.22
2022-08-20T10:45:33.093Z,22.27
2022-08-20T10:46:33.048Z,22.23
2022-08-20T10:47:32.997Z,22.29
2022-08-20T10:48:32.952Z,22.23
2022-08-20T10:49:32.899Z,22.20
2022-08-20T10:50:32.854Z,22.25
2022-08-20T10:51:33.084Z,22.28
2022-08-20T10:52:32.757Z,22.31
2022-08-20T10:53:32.705Z,22.28
2022-08-20T10:54:32.656Z,22.28
2022-08-20T10:55:32.609Z,22.32
2022-08-20T10:56:32.559Z,22.34
2022-08-20T10:57:32.519Z,22.35
2022-08-20T10:58:37.750Z,22.28
2022-08-20T10:59:32.412Z,22.35
2022-08-20T11:00:32.362Z,22.35
2022-08-20T11:01:36.182Z,22.35
2022-08-20T11:02:32.266Z,22.35
2022-08-20T11:03:32.223Z,22.32
2022-08-20T11:04:32.168Z,22.35
2022-08-20T11:05:32.151Z,22.37
2022-08-20T11:06:32.069Z,22.35
2022-08-20T11:07:50.583Z,22.41
2022-08-20T11:08:34.207Z,22.38
2022-08-20T11:09:31.921Z,22.38
2022-08-20T11:10:31.875Z,22.41
2022-08-20T11:11:31.824Z,22.35
2022-08-20T11:12:31.779Z,22.39
2022-08-20T11:13:31.727Z,22.39
2022-08-20T11:14:31.682Z,22.37
2022-08-20T11:15:31.631Z,22.43
2022-08-20T11:16:31.582Z,22.38
2022-08-20T11:17:31.533Z,22.44
2022-08-20T11:18:31.504Z,22.43
2022-08-20T11:19:31.435Z,22.50
2022-08-20T11:20:31.392Z,22.47
2022-08-20T11:21:31.344Z,22.53
2022-08-20T11:22:31.292Z,22.41
2022-08-20T11:23:31.239Z,22.43
2022-08-20T11:24:31.193Z,22.49
2022-08-20T11:25:31.141Z,22.47
2022-08-20T11:26:31.095Z,22.50
2022-08-20T11:27:31.047Z,22.47
2022-08-20T11:28:32.023Z,22.49
2022-08-20T11:29:33.945Z,22.52
2022-08-20T11:30:30.903Z,22.52
2022-08-20T11:31:30.862Z,22.50
2022-08-20T11:32:30.804Z,22.50
2022-08-20T11:33:30.752Z,22.54
2022-08-20T11:34:30.707Z,22.52
2022-08-20T11:35:49.585Z,22.53
2022-08-20T11:36:30.608Z,22.56
2022-08-20T11:37:30.556Z,22.46
2022-08-20T11:38:30.511Z,22.47
2022-08-20T11:39:30.459Z,22.53
2022-08-20T11:40:30.498Z,22.56
2022-08-20T11:41:30.362Z,22.47
2022-08-20T11:42:30.314Z,22.47
2022-08-20T11:43:30.265Z,22.46
2022-08-20T11:44:30.223Z,22.50
2022-08-20T11:45:30.166Z,22.49
2022-08-20T11:46:30.120Z,22.47
2022-08-20T11:47:30.076Z,22.56
2022-08-20T11:48:30.023Z,22.47
2022-08-20T11:49:29.972Z,22.52
2022-08-20T11:50:29.927Z,22.50
2022-08-20T11:51:29.882Z,22.54
2022-08-20T11:52:29.828Z,22.62
2022-08-20T11:53:29.777Z,22.50
2022-08-20T11:54:29.737Z,22.50
2022-08-20T11:55:30.523Z,22.56
2022-08-20T11:56:29.635Z,22.56
2022-08-20T11:57:29.589Z,22.50
2022-08-20T11:58:29.540Z,22.59
2022-08-20T11:59:29.486Z,22.50
2022-08-20T12:00:32.787Z,22.56
2022-08-20T12:01:29.391Z,22.50
2022-08-20T12:02:29.847Z,22.52
2022-08-20T12:03:29.296Z,22.56
2022-08-20T12:04:29.244Z,22.50
2022-08-20T12:05:29.198Z,22.47
2022-08-20T12:06:29.152Z,22.53
2022-08-20T12:07:29.097Z,22.57
2022-08-20T12:08:29.053Z,22.56
2022-08-20T12:09:29.001Z,22.52
2022-08-20T12:10:28.951Z,22.52
2022-08-20T12:11:28.906Z,22.52
2022-08-20T12:12:28.856Z,22.43
2022-08-20T12:13:30.672Z,22.52
2022-08-20T12:14:28.760Z,22.50
2022-08-20T12:15:28.709Z,22.54
2022-08-20T12:16:28.661Z,22.53
2022-08-20T12:17:28.609Z,22.53
2022-08-20T12:18:28.564Z,22.50
2022-08-20T12:19:28.513Z,22.43
2022-08-20T12:20:28.469Z,22.52
2022-08-20T12:21:32.027Z,22.47
2022-08-20T12:22:28.370Z,22.46
2022-08-20T12:23:28.321Z,22.46
2022-08-20T12:24:28.288Z,22.43
2022-08-20T12:25:28.219Z,22.57
2022-08-20T12:26:28.177Z,22.41
2022-08-20T12:27:28.125Z,22.53
2022-08-20T12:28:28.079Z,22.43
2022-08-20T12:29:28.026Z,22.54
2022-08-20T12:30:27.978Z,22.54
2022-08-20T12:31:27.929Z,22.50
2022-08-20T12:32:27.883Z,22.56
2022-08-20T12:33:27.831Z,22.54
2022-08-20T12:34:27.784Z,22.56
2022-08-20T12:35:27.740Z,22.53
2022-08-20T12:36:27.689Z,22.52
2022-08-20T12:37:27.638Z,22.52
2022-08-20T12:38:27.602Z,22.52
2022-08-20T12:39:27.541Z,22.53
2022-08-20T12:40:32.405Z,22.49
2022-08-20T12:41:27.442Z,22.53
2022-08-20T12:42:27.396Z,22.50
2022-08-20T12:43:27.346Z,22.56
2022-08-20T12:44:27.299Z,22.60
2022-08-20T12:45:27.248Z,22.47
2022-08-20T12:46:27.231Z,22.50
2022-08-20T12:47:27.152Z,22.53
2022-08-20T12:48:27.110Z,22.46
2022-08-20T12:49:27.054Z,22.50
2022-08-20T12:50:31.259Z,22.54
2022-08-20T12:51:26.957Z,22.50